Terminal Aerodrome Forecast
Issued by NWS

Home | Current Version | Previous Version | Text Only | Print | Product List | Glossary On
Versions: 1 2 3 4 5 6 7 8 9 10 11 12 13 14 15 16 17 18 19 20 21
910
FTPA31 PHFO 280911 AAA
TAFHTO
TAF AMD
PHTO 280911Z 2809/0106 24006KT P6SM VCSH SCT025 BKN035 OVC050
      TEMPO 2809/2812 3SM SHRA BR BKN025
     FM282100 VRB06KT 3SM SHRA BR SCT015 BKN025 OVC035
     FM010500 23006KT 3SM SHRA BR SCT015 BKN025 OVC035=

USA.gov is the U.S. government's official web portal to all federal, state and local government web resources and services.